sensor_id;sensor_type;location;lat;lon;timestamp;temperature;humidity
7842;DHT22;3966;51.052;13.820;2022-09-01T00:01:30;16.90;99.90
7842;DHT22;3966;51.052;13.820;2022-09-01T00:03:57;16.80;99.90
7842;DHT22;3966;51.052;13.820;2022-09-01T00:06:29;17.10;99.90
7842;DHT22;3966;51.052;13.820;2022-09-01T00:08:58;16.80;99.90
7842;DHT22;3966;51.052;13.820;2022-09-01T00:11:26;16.80;99.90
7842;DHT22;3966;51.052;13.820;2022-09-01T00:13:52;17.10;99.90
7842;DHT22;3966;51.052;13.820;2022-09-01T00:16:19;16.90;99.90
7842;DHT22;3966;51.052;13.820;2022-09-01T00:18:47;16.40;99.90
7842;DHT22;3966;51.052;13.820;2022-09-01T00:21:27;16.30;99.90
7842;DHT22;3966;51.052;13.820;2022-09-01T00:23:53;16.10;99.90
7842;DHT22;3966;51.052;13.820;2022-09-01T00:26:18;16.30;99.90
7842;DHT22;3966;51.052;13.820;2022-09-01T00:28:44;16.40;99.90
7842;DHT22;3966;51.052;13.820;2022-09-01T00:31:10;16.30;99.90
7842;DHT22;3966;51.052;13.820;2022-09-01T00:33:36;16.30;99.90
7842;DHT22;3966;51.052;13.820;2022-09-01T00:36:03;16.60;99.90
7842;DHT22;3966;51.052;13.820;2022-09-01T00:38:29;16.60;99.90
7842;DHT22;3966;51.052;13.820;2022-09-01T00:40:55;16.30;99.90
7842;DHT22;3966;51.052;13.820;2022-09-01T00:43:28;16.00;99.90
7842;DHT22;3966;51.052;13.820;2022-09-01T00:45:59;15.80;99.90
7842;DHT22;3966;51.052;13.820;2022-09-01T00:48:25;16.00;99.90
7842;DHT22;3966;51.052;13.820;2022-09-01T00:50:50;15.90;99.90
7842;DHT22;3966;51.052;13.820;2022-09-01T00:53:16;16.30;99.90
7842;DHT22;3966;51.052;13.820;2022-09-01T00:55:42;16.30;99.90
7842;DHT22;3966;51.052;13.820;2022-09-01T00:58:08;16.10;99.90
7842;DHT22;3966;51.052;13.820;2022-09-01T01:00:36;15.90;99.90
7842;DHT22;3966;51.052;13.820;2022-09-01T01:03:06;15.70;99.90
7842;DHT22;3966;51.052;13.820;2022-09-01T01:05:36;15.80;99.90
7842;DHT22;3966;51.052;13.820;2022-09-01T01:08:03;15.80;99.90
7842;DHT22;3966;51.052;13.820;2022-09-01T01:10:35;15.90;99.90
7842;DHT22;3966;51.052;13.820;2022-09-01T01:13:09;15.70;99.90
7842;DHT22;3966;51.052;13.820;2022-09-01T01:15:35;15.50;99.90
7842;DHT22;3966;51.052;13.820;2022-09-01T01:18:01;15.30;99.90
7842;DHT22;3966;51.052;13.820;2022-09-01T01:20:28;15.00;99.90
7842;DHT22;3966;51.052;13.820;2022-09-01T01:23:15;15.50;99.90
7842;DHT22;3966;51.052;13.820;2022-09-01T01:25:55;16.00;99.90
7842;DHT22;3966;51.052;13.820;2022-09-01T01:28:25;16.20;99.90
7842;DHT22;3966;51.052;13.820;2022-09-01T01:30:57;16.40;99.90
7842;DHT22;3966;51.052;13.820;2022-09-01T01:33:29;16.50;99.90
7842;DHT22;3966;51.052;13.820;2022-09-01T01:35:55;16.40;99.90
7842;DHT22;3966;51.052;13.820;2022-09-01T01:38:22;16.20;99.90
7842;DHT22;3966;51.052;13.820;2022-09-01T01:40:48;16.00;99.90
7842;DHT22;3966;51.052;13.820;2022-09-01T01:43:14;15.80;99.90
7842;DHT22;3966;51.052;13.820;2022-09-01T01:45:51;15.60;99.90
7842;DHT22;3966;51.052;13.820;2022-09-01T01:48:18;15.80;99.90
7842;DHT22;3966;51.052;13.820;2022-09-01T01:50:47;16.10;99.90
7842;DHT22;3966;51.052;13.820;2022-09-01T01:53:14;16.00;99.90
7842;DHT22;3966;51.052;13.820;2022-09-01T01:55:41;16.00;99.90
7842;DHT22;3966;51.052;13.820;2022-09-01T01:58:08;15.60;99.90
7842;DHT22;3966;51.052;13.820;2022-09-01T02:00:36;15.40;99.90
7842;DHT22;3966;51.052;13.820;2022-09-01T02:03:02;15.40;99.90
7842;DHT22;3966;51.052;13.820;2022-09-01T02:05:31;15.60;99.90
7842;DHT22;3966;51.052;13.820;2022-09-01T02:08:00;15.90;99.90
7842;DHT22;3966;51.052;13.820;2022-09-01T02:10:30;15.90;99.90
7842;DHT22;3966;51.052;13.820;2022-09-01T02:12:58;15.60;99.90
7842;DHT22;3966;51.052;13.820;2022-09-01T02:15:38;15.40;99.90
7842;DHT22;3966;51.052;13.820;2022-09-01T02:18:11;15.30;99.90
7842;DHT22;3966;51.052;13.820;2022-09-01T02:20:39;15.10;99.90
7842;DHT22;3966;51.052;13.820;2022-09-01T02:23:05;15.00;99.90
7842;DHT22;3966;51.052;13.820;2022-09-01T02:25:38;14.90;99.90
7842;DHT22;3966;51.052;13.820;2022-09-01T02:28:08;15.30;99.90
7842;DHT22;3966;51.052;13.820;2022-09-01T02:30:34;15.20;99.90
7842;DHT22;3966;51.052;13.820;2022-09-01T02:33:02;15.50;99.90
7842;DHT22;3966;51.052;13.820;2022-09-01T02:35:29;15.40;99.90
7842;DHT22;3966;51.052;13.820;2022-09-01T02:37:59;15.40;99.90
7842;DHT22;3966;51.052;13.820;2022-09-01T02:40:27;15.00;99.90
7842;DHT22;3966;51.052;13.820;2022-09-01T02:42:58;14.80;99.90
7842;DHT22;3966;51.052;13.820;2022-09-01T02:45:28;14.80;99.90
7842;DHT22;3966;51.052;13.820;2022-09-01T02:47:54;15.00;99.90
7842;DHT22;3966;51.052;13.820;2022-09-01T02:50:22;15.40;99.90
7842;DHT22;3966;51.052;13.820;2022-09-01T02:52:50;15.60;99.90
7842;DHT22;3966;51.052;13.820;2022-09-01T02:55:19;15.30;99.90
7842;DHT22;3966;51.052;13.820;2022-09-01T02:57:49;15.30;99.90
7842;DHT22;3966;51.052;13.820;2022-09-01T03:00:16;15.20;99.90
7842;DHT22;3966;51.052;13.820;2022-09-01T03:02:50;15.30;99.90
7842;DHT22;3966;51.052;13.820;2022-09-01T03:05:18;15.20;99.90
7842;DHT22;3966;51.052;13.820;2022-09-01T03:07:50;15.10;99.90
7842;DHT22;3966;51.052;13.820;2022-09-01T03:10:19;15.10;99.90
7842;DHT22;3966;51.052;13.820;2022-09-01T03:12:45;15.30;99.90
7842;DHT22;3966;51.052;13.820;2022-09-01T03:15:11;15.60;99.90
7842;DHT22;3966;51.052;13.820;2022-09-01T03:17:37;15.60;99.90
7842;DHT22;3966;51.052;13.820;2022-09-01T03:20:03;15.70;99.90
7842;DHT22;3966;51.052;13.820;2022-09-01T03:22:29;15.50;99.90
7842;DHT22;3966;51.052;13.820;2022-09-01T03:24:54;15.20;99.90
7842;DHT22;3966;51.052;13.820;2022-09-01T03:27:20;15.20;99.90
7842;DHT22;3966;51.052;13.820;2022-09-01T03:29:46;14.90;99.90
7842;DHT22;3966;51.052;13.820;2022-09-01T03:32:11;14.80;99.90
7842;DHT22;3966;51.052;13.820;2022-09-01T03:34:37;14.90;99.90
7842;DHT22;3966;51.052;13.820;2022-09-01T03:37:04;15.20;99.90
7842;DHT22;3966;51.052;13.820;2022-09-01T03:39:31;15.40;99.90
7842;DHT22;3966;51.052;13.820;2022-09-01T03:41:58;15.60;99.90
7842;DHT22;3966;51.052;13.820;2022-09-01T03:44:24;15.50;99.90
7842;DHT22;3966;51.052;13.820;2022-09-01T03:46:50;15.60;99.90
7842;DHT22;3966;51.052;13.820;2022-09-01T03:49:17;15.50;99.90
7842;DHT22;3966;51.052;13.820;2022-09-01T03:51:52;15.10;99.90
7842;DHT22;3966;51.052;13.820;2022-09-01T03:54:18;15.30;99.90
7842;DHT22;3966;51.052;13.820;2022-09-01T03:56:44;15.50;99.90
7842;DHT22;3966;51.052;13.820;2022-09-01T03:59:10;15.60;99.90
7842;DHT22;3966;51.052;13.820;2022-09-01T04:01:41;15.60;99.90
7842;DHT22;3966;51.052;13.820;2022-09-01T04:04:09;15.40;99.90
7842;DHT22;3966;51.052;13.820;2022-09-01T04:06:38;15.20;99.90
7842;DHT22;3966;51.052;13.820;2022-09-01T04:09:04;15.20;99.90
7842;DHT22;3966;51.052;13.820;2022-09-01T04:11:30;15.30;99.90
7842;DHT22;3966;51.052;13.820;2022-09-01T04:13:57;15.20;99.90
7842;DHT22;3966;51.052;13.820;2022-09-01T04:16:28;15.30;99.90
7842;DHT22;3966;51.052;13.820;2022-09-01T04:19:15;15.40;99.90
7842;DHT22;3966;51.052;13.820;2022-09-01T04:21:45;15.70;99.90
7842;DHT22;3966;51.052;13.820;2022-09-01T04:24:11;15.60;99.90
7842;DHT22;3966;51.052;13.820;2022-09-01T04:26:41;15.70;99.90
7842;DHT22;3966;51.052;13.820;2022-09-01T04:29:07;15.80;99.90
7842;DHT22;3966;51.052;13.820;2022-09-01T04:31:35;15.90;99.90
7842;DHT22;3966;51.052;13.820;2022-09-01T04:34:01;15.80;99.90
7842;DHT22;3966;51.052;13.820;2022-09-01T04:36:28;15.80;99.90
7842;DHT22;3966;51.052;13.820;2022-09-01T04:38:59;15.90;99.90
7842;DHT22;3966;51.052;13.820;2022-09-01T04:41:30;16.00;99.90
7842;DHT22;3966;51.052;13.820;2022-09-01T04:43:58;15.80;99.90
7842;DHT22;3966;51.052;13.820;2022-09-01T04:46:25;15.60;99.90
7842;DHT22;3966;51.052;13.820;2022-09-01T04:48:54;15.40;99.90
7842;DHT22;3966;51.052;13.820;2022-09-01T04:51:20;15.30;99.90
7842;DHT22;3966;51.052;13.820;2022-09-01T04:53:46;15.40;99.90
7842;DHT22;3966;51.052;13.820;2022-09-01T04:56:17;15.60;99.90
7842;DHT22;3966;51.052;13.820;2022-09-01T04:58:45;15.90;99.90
7842;DHT22;3966;51.052;13.820;2022-09-01T05:01:18;15.90;99.90
7842;DHT22;3966;51.052;13.820;2022-09-01T05:03:44;15.80;99.90
7842;DHT22;3966;51.052;13.820;2022-09-01T05:06:15;15.40;99.90
7842;DHT22;3966;51.052;13.820;2022-09-01T05:08:42;15.30;99.90
7842;DHT22;3966;51.052;13.820;2022-09-01T05:11:10;15.30;99.90
7842;DHT22;3966;51.052;13.820;2022-09-01T05:13:36;15.40;99.90
7842;DHT22;3966;51.052;13.820;2022-09-01T05:16:06;15.40;99.90
7842;DHT22;3966;51.052;13.820;2022-09-01T05:18:38;15.50;99.90
7842;DHT22;3966;51.052;13.820;2022-09-01T05:21:06;15.70;99.90
7842;DHT22;3966;51.052;13.820;2022-09-01T05:23:36;15.50;99.90
7842;DHT22;3966;51.052;13.820;2022-09-01T05:26:02;15.30;99.90
7842;DHT22;3966;51.052;13.820;2022-09-01T05:28:30;15.20;99.90
7842;DHT22;3966;51.052;13.820;2022-09-01T05:30:59;15.30;99.90
7842;DHT22;3966;51.052;13.820;2022-09-01T05:33:25;15.60;99.90
7842;DHT22;3966;51.052;13.820;2022-09-01T05:35:56;15.70;99.90
7842;DHT22;3966;51.052;13.820;2022-09-01T05:38:25;15.60;99.90
7842;DHT22;3966;51.052;13.820;2022-09-01T05:41:01;15.60;99.90
7842;DHT22;3966;51.052;13.820;2022-09-01T05:43:27;15.30;99.90
7842;DHT22;3966;51.052;13.820;2022-09-01T05:45:55;15.20;99.90
7842;DHT22;3966;51.052;13.820;2022-09-01T05:48:21;15.30;99.90
7842;DHT22;3966;51.052;13.820;2022-09-01T05:50:49;15.10;99.90
7842;DHT22;3966;51.052;13.820;2022-09-01T05:53:16;14.80;99.90
7842;DHT22;3966;51.052;13.820;2022-09-01T05:55:43;14.80;99.90
7842;DHT22;3966;51.052;13.820;2022-09-01T05:58:11;15.10;99.90
7842;DHT22;3966;51.052;13.820;2022-09-01T06:00:40;15.00;99.90
7842;DHT22;3966;51.052;13.820;2022-09-01T06:03:07;14.90;99.90
7842;DHT22;3966;51.052;13.820;2022-09-01T06:05:34;14.70;99.90
7842;DHT22;3966;51.052;13.820;2022-09-01T06:08:04;14.90;99.90
7842;DHT22;3966;51.052;13.820;2022-09-01T06:10:31;15.00;99.90
7842;DHT22;3966;51.052;13.820;2022-09-01T06:13:01;15.00;99.90
7842;DHT22;3966;51.052;13.820;2022-09-01T06:15:30;14.60;99.90
7842;DHT22;3966;51.052;13.820;2022-09-01T06:17:57;14.50;99.90
7842;DHT22;3966;51.052;13.820;2022-09-01T06:20:23;14.80;99.90
7842;DHT22;3966;51.052;13.820;2022-09-01T06:22:49;14.90;99.90
7842;DHT22;3966;51.052;13.820;2022-09-01T06:25:17;15.10;99.90
7842;DHT22;3966;51.052;13.820;2022-09-01T06:27:44;15.60;99.90
7842;DHT22;3966;51.052;13.820;2022-09-01T06:30:11;15.80;99.90
7842;DHT22;3966;51.052;13.820;2022-09-01T06:32:41;15.70;99.90
7842;DHT22;3966;51.052;13.820;2022-09-01T06:35:12;16.00;99.90
7842;DHT22;3966;51.052;13.820;2022-09-01T06:37:40;16.10;99.90
7842;DHT22;3966;51.052;13.820;2022-09-01T06:40:08;15.10;99.90
7842;DHT22;3966;51.052;13.820;2022-09-01T06:42:35;15.30;99.90
7842;DHT22;3966;51.052;13.820;2022-09-01T06:45:03;15.70;99.90
7842;DHT22;3966;51.052;13.820;2022-09-01T06:47:28;15.20;99.90
7842;DHT22;3966;51.052;13.820;2022-09-01T06:49:54;15.20;99.90
7842;DHT22;3966;51.052;13.820;2022-09-01T06:52:23;15.30;99.90
7842;DHT22;3966;51.052;13.820;2022-09-01T06:54:49;15.30;99.90
7842;DHT22;3966;51.052;13.820;2022-09-01T06:57:18;15.40;99.90
7842;DHT22;3966;51.052;13.820;2022-09-01T06:59:44;15.20;99.90
7842;DHT22;3966;51.052;13.820;2022-09-01T07:02:10;15.20;99.90
7842;DHT22;3966;51.052;13.820;2022-09-01T07:04:41;15.30;99.90
7842;DHT22;3966;51.052;13.820;2022-09-01T07:07:11;15.20;99.90
7842;DHT22;3966;51.052;13.820;2022-09-01T07:09:40;15.10;99.90
7842;DHT22;3966;51.052;13.820;2022-09-01T07:12:06;15.00;99.90
7842;DHT22;3966;51.052;13.820;2022-09-01T07:14:32;15.00;99.90
7842;DHT22;3966;51.052;13.820;2022-09-01T07:16:57;15.00;99.90
7842;DHT22;3966;51.052;13.820;2022-09-01T07:19:24;14.90;99.90
7842;DHT22;3966;51.052;13.820;2022-09-01T07:21:51;15.00;99.90
7842;DHT22;3966;51.052;13.820;2022-09-01T07:24:17;15.00;99.90
7842;DHT22;3966;51.052;13.820;2022-09-01T07:26:43;15.10;99.90
7842;DHT22;3966;51.052;13.820;2022-09-01T07:29:14;15.10;99.90
7842;DHT22;3966;51.052;13.820;2022-09-01T07:31:41;15.20;99.90
7842;DHT22;3966;51.052;13.820;2022-09-01T07:34:09;15.10;99.90
7842;DHT22;3966;51.052;13.820;2022-09-01T07:36:39;15.20;99.90
7842;DHT22;3966;51.052;13.820;2022-09-01T07:39:07;15.30;99.90
7842;DHT22;3966;51.052;13.820;2022-09-01T07:41:32;15.30;99.90
7842;DHT22;3966;51.052;13.820;2022-09-01T07:43:59;15.30;99.90
7842;DHT22;3966;51.052;13.820;2022-09-01T07:46:25;15.40;99.90
7842;DHT22;3966;51.052;13.820;2022-09-01T07:48:55;15.60;99.90
7842;DHT22;3966;51.052;13.820;2022-09-01T07:51:21;15.80;99.90
7842;DHT22;3966;51.052;13.820;2022-09-01T07:53:48;15.70;99.90
7842;DHT22;3966;51.052;13.820;2022-09-01T07:56:16;15.60;99.90
7842;DHT22;3966;51.052;13.820;2022-09-01T07:58:44;15.80;99.90
7842;DHT22;3966;51.052;13.820;2022-09-01T08:01:15;15.90;99.90
7842;DHT22;3966;51.052;13.820;2022-09-01T08:03:47;16.00;99.90
7842;DHT22;3966;51.052;13.820;2022-09-01T08:06:15;16.10;99.90
7842;DHT22;3966;51.052;13.820;2022-09-01T08:08:46;16.40;99.90
7842;DHT22;3966;51.052;13.820;2022-09-01T08:11:18;16.20;99.90
7842;DHT22;3966;51.052;13.820;2022-09-01T08:13:44;16.20;99.90
7842;DHT22;3966;51.052;13.820;2022-09-01T08:16:10;16.20;99.90
7842;DHT22;3966;51.052;13.820;2022-09-01T08:18:36;16.10;99.90
7842;DHT22;3966;51.052;13.820;2022-09-01T08:21:10;16.30;99.90
7842;DHT22;3966;51.052;13.820;2022-09-01T08:23:36;16.60;99.90
7842;DHT22;3966;51.052;13.820;2022-09-01T08:26:07;16.30;99.90
7842;DHT22;3966;51.052;13.820;2022-09-01T08:28:33;16.50;99.90
7842;DHT22;3966;51.052;13.820;2022-09-01T08:30:58;16.60;99.90
7842;DHT22;3966;51.052;13.820;2022-09-01T08:33:25;16.90;99.90
7842;DHT22;3966;51.052;13.820;2022-09-01T08:35:51;17.00;99.90
7842;DHT22;3966;51.052;13.820;2022-09-01T08:38:17;17.00;99.90
7842;DHT22;3966;51.052;13.820;2022-09-01T08:40:53;17.10;99.90
7842;DHT22;3966;51.052;13.820;2022-09-01T08:43:59;17.60;99.90
7842;DHT22;3966;51.052;13.820;2022-09-01T08:46:32;17.40;99.90
7842;DHT22;3966;51.052;13.820;2022-09-01T08:49:18;17.40;99.90
7842;DHT22;3966;51.052;13.820;2022-09-01T08:51:49;17.30;99.90
7842;DHT22;3966;51.052;13.820;2022-09-01T08:54:23;17.40;99.90
7842;DHT22;3966;51.052;13.820;2022-09-01T08:56:55;17.60;99.90
7842;DHT22;3966;51.052;13.820;2022-09-01T08:59:22;17.90;99.90
7842;DHT22;3966;51.052;13.820;2022-09-01T09:02:15;18.10;99.90
7842;DHT22;3966;51.052;13.820;2022-09-01T09:05:03;18.40;99.90
7842;DHT22;3966;51.052;13.820;2022-09-01T09:11:00;18.10;99.90
7842;DHT22;3966;51.052;13.820;2022-09-01T09:13:56;17.90;99.90
7842;DHT22;3966;51.052;13.820;2022-09-01T09:16:27;17.70;99.90
7842;DHT22;3966;51.052;13.820;2022-09-01T09:18:58;17.90;99.90
7842;DHT22;3966;51.052;13.820;2022-09-01T09:21:39;17.80;99.90
7842;DHT22;3966;51.052;13.820;2022-09-01T09:24:38;18.00;99.90
7842;DHT22;3966;51.052;13.820;2022-09-01T09:27:18;18.20;99.90
7842;DHT22;3966;51.052;13.820;2022-09-01T09:30:21;18.30;99.90
7842;DHT22;3966;51.052;13.820;2022-09-01T09:35:39;18.20;99.90
7842;DHT22;3966;51.052;13.820;2022-09-01T09:41:02;18.70;99.90
7842;DHT22;3966;51.052;13.820;2022-09-01T09:43:31;19.20;99.90
7842;DHT22;3966;51.052;13.820;2022-09-01T09:48:45;19.80;99.90
7842;DHT22;3966;51.052;13.820;2022-09-01T09:51:16;20.10;99.90
7842;DHT22;3966;51.052;13.820;2022-09-01T09:53:44;20.40;99.90
7842;DHT22;3966;51.052;13.820;2022-09-01T09:56:19;20.40;99.90
7842;DHT22;3966;51.052;13.820;2022-09-01T09:58:48;20.30;99.90
7842;DHT22;3966;51.052;13.820;2022-09-01T10:03:53;19.90;99.90
7842;DHT22;3966;51.052;13.820;2022-09-01T10:06:37;20.00;99.90
7842;DHT22;3966;51.052;13.820;2022-09-01T10:09:06;19.70;99.90
7842;DHT22;3966;51.052;13.820;2022-09-01T10:11:40;20.00;99.90
7842;DHT22;3966;51.052;13.820;2022-09-01T10:14:13;20.20;99.90
7842;DHT22;3966;51.052;13.820;2022-09-01T10:16:40;20.20;99.90
7842;DHT22;3966;51.052;13.820;2022-09-01T10:19:11;19.90;99.90
7842;DHT22;3966;51.052;13.820;2022-09-01T10:21:40;20.00;99.90
7842;DHT22;3966;51.052;13.820;2022-09-01T10:24:16;20.40;99.90
7842;DHT22;3966;51.052;13.820;2022-09-01T10:26:44;20.70;99.90
7842;DHT22;3966;51.052;13.820;2022-09-01T10:29:26;20.70;99.90
7842;DHT22;3966;51.052;13.820;2022-09-01T10:31:54;20.90;99.90
7842;DHT22;3966;51.052;13.820;2022-09-01T10:34:21;21.00;99.90
7842;DHT22;3966;51.052;13.820;2022-09-01T10:36:47;21.10;99.90
7842;DHT22;3966;51.052;13.820;2022-09-01T10:39:16;21.20;99.90
7842;DHT22;3966;51.052;13.820;2022-09-01T10:41:46;21.40;99.90
7842;DHT22;3966;51.052;13.820;2022-09-01T10:44:22;21.50;99.90
7842;DHT22;3966;51.052;13.820;2022-09-01T10:46:49;21.60;99.90
7842;DHT22;3966;51.052;13.820;2022-09-01T10:51:53;21.30;99.90
7842;DHT22;3966;51.052;13.820;2022-09-01T10:57:08;21.40;99.90
7842;DHT22;3966;51.052;13.820;2022-09-01T10:59:34;21.60;99.90
7842;DHT22;3966;51.052;13.820;2022-09-01T11:02:17;21.80;99.90
7842;DHT22;3966;51.052;13.820;2022-09-01T11:10:32;22.70;99.90
7842;DHT22;3966;51.052;13.820;2022-09-01T11:12:43;23.20;99.90
7842;DHT22;3966;51.052;13.820;2022-09-01T11:20:36;21.90;99.90
7842;DHT22;3966;51.052;13.820;2022-09-01T11:23:22;22.00;99.90
7842;DHT22;3966;51.052;13.820;2022-09-01T11:26:02;22.20;99.90
7842;DHT22;3966;51.052;13.820;2022-09-01T11:28:46;22.20;99.90
7842;DHT22;3966;51.052;13.820;2022-09-01T11:31:23;22.20;99.90
7842;DHT22;3966;51.052;13.820;2022-09-01T11:34:15;22.20;99.90
7842;DHT22;3966;51.052;13.820;2022-09-01T11:42:02;22.00;99.90
7842;DHT22;3966;51.052;13.820;2022-09-01T11:44:41;21.90;99.90
7842;DHT22;3966;51.052;13.820;2022-09-01T11:47:12;21.70;99.90
7842;DHT22;3966;51.052;13.820;2022-09-01T11:49:56;21.80;99.90
7842;DHT22;3966;51.052;13.820;2022-09-01T11:52:29;21.20;99.90
7842;DHT22;3966;51.052;13.820;2022-09-01T11:54:56;20.90;99.90
7842;DHT22;3966;51.052;13.820;2022-09-01T11:57:34;20.70;99.90
7842;DHT22;3966;51.052;13.820;2022-09-01T12:00:05;20.70;99.90
7842;DHT22;3966;51.052;13.820;2022-09-01T12:02:33;21.00;99.90
7842;DHT22;3966;51.052;13.820;2022-09-01T12:05:02;21.00;99.90
7842;DHT22;3966;51.052;13.820;2022-09-01T12:07:44;20.90;99.90
7842;DHT22;3966;51.052;13.820;2022-09-01T12:10:23;21.00;99.90
7842;DHT22;3966;51.052;13.820;2022-09-01T12:13:16;21.00;99.90
7842;DHT22;3966;51.052;13.820;2022-09-01T12:15:42;21.20;99.90
7842;DHT22;3966;51.052;13.820;2022-09-01T12:18:24;21.30;99.90
7842;DHT22;3966;51.052;13.820;2022-09-01T12:20:53;21.20;99.90
7842;DHT22;3966;51.052;13.820;2022-09-01T12:24:00;21.50;99.90
7842;DHT22;3966;51.052;13.820;2022-09-01T12:26:26;21.60;99.90
7842;DHT22;3966;51.052;13.820;2022-09-01T12:28:52;21.60;99.90
7842;DHT22;3966;51.052;13.820;2022-09-01T12:31:20;21.40;99.90
7842;DHT22;3966;51.052;13.820;2022-09-01T12:33:47;21.50;99.90
7842;DHT22;3966;51.052;13.820;2022-09-01T12:36:25;21.50;99.90
7842;DHT22;3966;51.052;13.820;2022-09-01T12:38:56;21.50;99.90
7842;DHT22;3966;51.052;13.820;2022-09-01T12:41:42;21.40;99.90
7842;DHT22;3966;51.052;13.820;2022-09-01T12:44:32;21.70;99.90
7842;DHT22;3966;51.052;13.820;2022-09-01T12:49:42;21.90;99.90
7842;DHT22;3966;51.052;13.820;2022-09-01T12:52:27;21.70;99.90
7842;DHT22;3966;51.052;13.820;2022-09-01T12:55:32;21.80;99.90
7842;DHT22;3966;51.052;13.820;2022-09-01T12:58:00;21.70;99.90
7842;DHT22;3966;51.052;13.820;2022-09-01T13:00:29;21.70;99.90
7842;DHT22;3966;51.052;13.820;2022-09-01T13:05:34;22.00;99.90
7842;DHT22;3966;51.052;13.820;2022-09-01T13:08:03;22.40;99.90
7842;DHT22;3966;51.052;13.820;2022-09-01T13:13:26;23.60;99.90
7842;DHT22;3966;51.052;13.820;2022-09-01T13:15:54;24.10;99.90
7842;DHT22;3966;51.052;13.820;2022-09-01T13:18:22;24.20;99.90
7842;DHT22;3966;51.052;13.820;2022-09-01T13:20:49;23.90;99.90
7842;DHT22;3966;51.052;13.820;2022-09-01T13:23:15;23.70;99.90
7842;DHT22;3966;51.052;13.820;2022-09-01T13:25:41;23.60;99.90
7842;DHT22;3966;51.052;13.820;2022-09-01T13:28:11;23.20;99.90
7842;DHT22;3966;51.052;13.820;2022-09-01T13:30:38;23.10;99.90
7842;DHT22;3966;51.052;13.820;2022-09-01T13:33:03;22.90;99.90
7842;DHT22;3966;51.052;13.820;2022-09-01T13:35:29;22.80;99.90
7842;DHT22;3966;51.052;13.820;2022-09-01T13:37:55;22.80;99.90
7842;DHT22;3966;51.052;13.820;2022-09-01T13:40:21;22.70;99.90
7842;DHT22;3966;51.052;13.820;2022-09-01T13:42:49;22.60;99.90
7842;DHT22;3966;51.052;13.820;2022-09-01T13:45:17;22.30;99.90
7842;DHT22;3966;51.052;13.820;2022-09-01T13:47:45;22.00;99.90
7842;DHT22;3966;51.052;13.820;2022-09-01T13:50:12;21.60;99.90
7842;DHT22;3966;51.052;13.820;2022-09-01T13:52:40;21.50;99.90
7842;DHT22;3966;51.052;13.820;2022-09-01T13:55:09;21.40;99.90
7842;DHT22;3966;51.052;13.820;2022-09-01T13:57:35;21.60;99.90
7842;DHT22;3966;51.052;13.820;2022-09-01T14:00:02;21.70;99.90
7842;DHT22;3966;51.052;13.820;2022-09-01T14:02:28;21.90;99.90
7842;DHT22;3966;51.052;13.820;2022-09-01T14:04:54;21.70;99.90
7842;DHT22;3966;51.052;13.820;2022-09-01T14:07:19;21.70;99.90
7842;DHT22;3966;51.052;13.820;2022-09-01T14:09:46;21.90;99.90
7842;DHT22;3966;51.052;13.820;2022-09-01T14:12:11;22.10;99.90
7842;DHT22;3966;51.052;13.820;2022-09-01T14:14:37;22.20;99.90
7842;DHT22;3966;51.052;13.820;2022-09-01T14:17:02;22.30;99.90
7842;DHT22;3966;51.052;13.820;2022-09-01T14:19:28;22.10;99.90
7842;DHT22;3966;51.052;13.820;2022-09-01T14:21:55;22.10;99.90
7842;DHT22;3966;51.052;13.820;2022-09-01T14:24:21;22.10;99.90
7842;DHT22;3966;51.052;13.820;2022-09-01T14:26:47;22.00;99.90
7842;DHT22;3966;51.052;13.820;2022-09-01T14:29:14;22.00;99.90
7842;DHT22;3966;51.052;13.820;2022-09-01T14:31:40;22.00;99.90
7842;DHT22;3966;51.052;13.820;2022-09-01T14:34:09;22.10;99.90
7842;DHT22;3966;51.052;13.820;2022-09-01T14:36:37;22.10;99.90
7842;DHT22;3966;51.052;13.820;2022-09-01T14:39:03;22.10;99.90
7842;DHT22;3966;51.052;13.820;2022-09-01T14:41:30;22.20;99.90
7842;DHT22;3966;51.052;13.820;2022-09-01T14:43:56;22.20;99.90
7842;DHT22;3966;51.052;13.820;2022-09-01T14:46:26;22.20;99.90
7842;DHT22;3966;51.052;13.820;2022-09-01T14:48:53;22.10;99.90
7842;DHT22;3966;51.052;13.820;2022-09-01T14:51:26;22.00;99.90
7842;DHT22;3966;51.052;13.820;2022-09-01T14:53:52;21.80;99.90
7842;DHT22;3966;51.052;13.820;2022-09-01T14:56:19;22.10;99.90
7842;DHT22;3966;51.052;13.820;2022-09-01T14:58:45;22.10;99.90
7842;DHT22;3966;51.052;13.820;2022-09-01T15:01:16;21.80;99.90
7842;DHT22;3966;51.052;13.820;2022-09-01T15:03:42;21.90;99.90
7842;DHT22;3966;51.052;13.820;2022-09-01T15:06:11;22.50;99.90
7842;DHT22;3966;51.052;13.820;2022-09-01T15:08:38;23.60;99.90
7842;DHT22;3966;51.052;13.820;2022-09-01T15:11:08;24.60;99.90
7842;DHT22;3966;51.052;13.820;2022-09-01T15:13:34;25.30;99.90
7842;DHT22;3966;51.052;13.820;2022-09-01T15:15:59;26.00;99.90
7842;DHT22;3966;51.052;13.820;2022-09-01T15:18:25;26.60;98.70
7842;DHT22;3966;51.052;13.820;2022-09-01T15:20:51;26.80;96.20
7842;DHT22;3966;51.052;13.820;2022-09-01T15:23:21;26.80;95.80
7842;DHT22;3966;51.052;13.820;2022-09-01T15:25:49;26.50;93.60
7842;DHT22;3966;51.052;13.820;2022-09-01T15:28:14;26.80;93.10
7842;DHT22;3966;51.052;13.820;2022-09-01T15:30:41;25.60;92.90
7842;DHT22;3966;51.052;13.820;2022-09-01T15:33:08;25.10;94.70
7842;DHT22;3966;51.052;13.820;2022-09-01T15:35:34;24.30;97.20
7842;DHT22;3966;51.052;13.820;2022-09-01T15:38:00;23.90;99.10
7842;DHT22;3966;51.052;13.820;2022-09-01T15:40:26;23.40;99.90
7842;DHT22;3966;51.052;13.820;2022-09-01T15:42:53;23.00;99.90
7842;DHT22;3966;51.052;13.820;2022-09-01T15:45:21;22.60;99.90
7842;DHT22;3966;51.052;13.820;2022-09-01T15:47:47;22.10;99.90
7842;DHT22;3966;51.052;13.820;2022-09-01T15:50:15;22.00;99.90
7842;DHT22;3966;51.052;13.820;2022-09-01T15:53:02;22.00;99.90
7842;DHT22;3966;51.052;13.820;2022-09-01T15:55:40;21.80;99.90
7842;DHT22;3966;51.052;13.820;2022-09-01T15:58:07;21.60;99.90
7842;DHT22;3966;51.052;13.820;2022-09-01T16:00:32;21.80;99.90
7842;DHT22;3966;51.052;13.820;2022-09-01T16:02:58;21.90;99.90
7842;DHT22;3966;51.052;13.820;2022-09-01T16:05:30;22.00;99.90
7842;DHT22;3966;51.052;13.820;2022-09-01T16:07:57;21.90;99.90
7842;DHT22;3966;51.052;13.820;2022-09-01T16:10:23;21.90;99.90
7842;DHT22;3966;51.052;13.820;2022-09-01T16:12:49;21.80;99.90
7842;DHT22;3966;51.052;13.820;2022-09-01T16:15:19;21.80;99.90
7842;DHT22;3966;51.052;13.820;2022-09-01T16:20:53;21.40;99.90
7842;DHT22;3966;51.052;13.820;2022-09-01T16:23:22;21.30;99.90
7842;DHT22;3966;51.052;13.820;2022-09-01T16:25:51;21.20;99.90
7842;DHT22;3966;51.052;13.820;2022-09-01T16:28:29;21.10;99.90
7842;DHT22;3966;51.052;13.820;2022-09-01T16:33:32;21.00;99.90
7842;DHT22;3966;51.052;13.820;2022-09-01T16:36:50;20.90;99.90
7842;DHT22;3966;51.052;13.820;2022-09-01T16:39:02;20.90;99.90
7842;DHT22;3966;51.052;13.820;2022-09-01T16:44:37;20.90;99.90
7842;DHT22;3966;51.052;13.820;2022-09-01T16:47:11;20.90;99.90
7842;DHT22;3966;51.052;13.820;2022-09-01T16:52:25;20.80;99.90
7842;DHT22;3966;51.052;13.820;2022-09-01T16:57:39;20.70;99.90
7842;DHT22;3966;51.052;13.820;2022-09-01T17:00:10;20.60;99.90